Time;durP1;ratioP1;P1;durP2;ratioP2;P2;SDS_P1;SDS_P2;PMS_P1;PMS_P2;Temp;Humidity;BMP_temperature;BMP_pressure;BME280_temperature;BME280_humidity;BME280_pressure;Samples;Min_cycle;Max_cycle;Signal;HPM_P1;HPM_P2
2022/11/12 00:00:57;;;;;;;16.65;6.28;;;;;;;5.23;56.34;103118.19;5027384;28;20056;-71
2022/11/12 00:03:41;;;;;;;11.73;6.25;;;;;;;5.19;55.85;103117.28;5027598;28;20075;-71
2022/11/12 00:06:25;;;;;;;13.10;6.75;;;;;;;5.13;55.87;103117.16;5025406;28;20094;-71
2022/11/12 00:09:09;;;;;;;14.45;7.15;;;;;;;5.07;56.30;103127.41;5025942;28;20056;-71
2022/11/12 00:11:53;;;;;;;13.02;5.90;;;;;;;4.98;56.37;103122.06;5026972;28;20064;-71
2022/11/12 00:14:37;;;;;;;11.68;6.47;;;;;;;4.89;56.45;103114.09;5022331;28;20048;-71
2022/11/12 00:17:22;;;;;;;14.18;7.03;;;;;;;4.88;57.26;103118.41;5017929;28;20167;-70
2022/11/12 00:20:06;;;;;;;16.30;6.65;;;;;;;4.94;56.29;103122.84;5025450;28;20421;-70
2022/11/12 00:22:51;;;;;;;14.02;7.50;;;;;;;4.84;56.47;103112.25;5024474;28;20270;-69
2022/11/12 00:25:35;;;;;;;12.85;6.63;;;;;;;4.80;56.43;103113.03;5021289;28;20133;-71
2022/11/12 00:28:19;;;;;;;10.15;5.60;;;;;;;4.80;56.18;103126.00;5025212;28;20055;-72
2022/11/12 00:31:08;;;;;;;13.13;5.78;;;;;;;4.76;56.24;103107.75;5029983;28;20052;-71
2022/11/12 00:33:53;;;;;;;9.45;5.68;;;;;;;4.74;56.26;103102.53;5022150;28;20071;-72
2022/11/12 00:36:38;;;;;;;13.80;6.97;;;;;;;4.62;56.36;103104.91;5024954;28;20072;-71
2022/11/12 00:39:22;;;;;;;12.20;7.22;;;;;;;4.65;56.81;103107.53;5012617;28;20103;-69
2022/11/12 00:42:06;;;;;;;13.93;7.88;;;;;;;4.65;56.69;103115.31;5013900;28;20072;-69
2022/11/12 00:44:50;;;;;;;12.02;6.75;;;;;;;4.64;56.79;103103.22;5022983;28;20072;-70
2022/11/12 00:47:34;;;;;;;10.57;6.53;;;;;;;4.58;57.12;103103.06;5027091;28;20196;-72
2022/11/12 00:50:18;;;;;;;14.32;6.38;;;;;;;4.63;56.40;103119.56;5024493;28;20107;-71
2022/11/12 00:53:02;;;;;;;15.05;7.18;;;;;;;4.59;56.67;103118.66;5027983;28;20056;-70
2022/11/12 00:55:46;;;;;;;13.55;5.93;;;;;;;4.55;57.10;103127.19;5025564;28;20049;-71
2022/11/12 00:58:32;;;;;;;13.02;6.70;;;;;;;4.55;57.39;103118.56;5024037;28;20524;-71
2022/11/12 01:01:17;;;;;;;12.45;7.20;;;;;;;4.65;57.30;103115.31;5018528;28;20118;-69
2022/11/12 01:04:01;;;;;;;16.05;7.22;;;;;;;4.71;56.90;103128.41;5026331;28;20609;-67
2022/11/12 01:06:45;;;;;;;12.23;7.22;;;;;;;4.59;56.71;103112.63;5021086;28;20055;-68
2022/11/12 01:09:29;;;;;;;11.63;6.80;;;;;;;4.58;56.96;103114.31;5025504;28;20111;-67
2022/11/12 01:12:13;;;;;;;14.25;6.35;;;;;;;4.58;57.25;103131.56;5026701;28;20136;-68
2022/11/12 01:14:57;;;;;;;10.88;6.95;;;;;;;4.64;57.06;103129.97;5022165;28;20110;-68
2022/11/12 01:17:41;;;;;;;11.05;6.57;;;;;;;4.65;57.51;103125.66;5025931;28;20107;-68
2022/11/12 01:20:25;;;;;;;14.15;6.13;;;;;;;4.69;56.84;103129.22;5024373;28;20599;-68
2022/11/12 01:23:09;;;;;;;12.13;6.32;;;;;;;4.67;56.97;103131.75;5027948;28;20048;-72
2022/11/12 01:25:53;;;;;;;13.43;7.55;;;;;;;4.66;57.37;103126.56;5025023;28;20067;-72
2022/11/12 01:28:38;;;;;;;12.32;6.60;;;;;;;4.64;57.23;103129.97;5024349;28;20110;-72
2022/11/12 01:31:29;;;;;;;10.02;6.85;;;;;;;4.45;58.11;103124.38;5027127;28;20051;-71
2022/11/12 01:34:13;;;;;;;10.75;6.43;;;;;;;4.54;57.30;103120.28;5026631;28;20420;-72
2022/11/12 01:36:56;;;;;;;14.52;6.55;;;;;;;4.47;57.78;103120.97;5024300;28;20559;-71
2022/11/12 01:39:41;;;;;;;11.45;6.63;;;;;;;4.55;57.35;103122.03;5025821;28;20125;-71
2022/11/12 01:42:34;;;;;;;12.82;6.70;;;;;;;4.60;57.10;103114.34;5027788;28;20158;-71
2022/11/12 01:45:18;;;;;;;13.20;7.15;;;;;;;4.52;57.26;103116.78;5027759;28;20049;-71
2022/11/12 01:48:03;;;;;;;12.35;6.65;;;;;;;4.61;57.07;103116.97;5028652;28;20525;-71
2022/11/12 01:50:47;;;;;;;12.80;6.30;;;;;;;4.58;56.82;103121.22;5027996;28;20094;-72
2022/11/12 01:53:37;;;;;;;12.57;6.28;;;;;;;4.29;58.35;103113.69;5025069;28;20528;-73
2022/11/12 01:56:22;;;;;;;12.93;6.32;;;;;;;4.50;58.04;103104.63;5021610;28;20036;-71
2022/11/12 01:59:14;;;;;;;12.02;6.72;;;;;;;4.52;57.38;103118.47;5027504;28;20525;-71
2022/11/12 02:01:58;;;;;;;10.13;7.20;;;;;;;4.49;57.43;103114.13;5024981;28;20115;-71
2022/11/12 02:04:43;;;;;;;11.38;7.13;;;;;;;4.42;57.95;103110.53;5024679;28;20053;-70
2022/11/12 02:07:28;;;;;;;13.23;6.80;;;;;;;4.52;57.54;103121.97;5026237;28;20144;-71
2022/11/12 02:10:13;;;;;;;12.00;6.35;;;;;;;4.40;58.20;103116.50;5028408;28;20091;-71
2022/11/12 02:16:02;;;;;;;12.30;6.85;;;;;;;4.59;57.34;103097.06;5028838;28;20308;-73
2022/11/12 02:18:46;;;;;;;10.38;6.75;;;;;;;4.52;57.69;103119.38;5027752;28;20155;-73
2022/11/12 02:21:30;;;;;;;19.95;7.30;;;;;;;4.59;57.32;103122.97;5017408;28;20048;-73
2022/11/12 02:24:14;;;;;;;13.40;7.68;;;;;;;4.47;57.78;103118.38;5026431;28;20057;-74
2022/11/12 02:26:58;;;;;;;11.48;7.05;;;;;;;4.43;57.86;103104.50;5028533;28;20132;-73
2022/11/12 02:29:45;;;;;;;12.23;6.50;;;;;;;4.47;57.44;103114.94;5022962;28;20052;-73
2022/11/12 02:32:29;;;;;;;12.32;7.10;;;;;;;4.45;57.44;103114.00;5029165;28;20114;-73
2022/11/12 02:35:13;;;;;;;12.90;6.88;;;;;;;4.50;57.39;103108.09;5013981;28;20147;-73
2022/11/12 02:37:57;;;;;;;9.52;6.07;;;;;;;4.48;56.95;103103.75;5027151;28;20188;-73
2022/11/12 02:40:42;;;;;;;13.68;5.90;;;;;;;4.48;56.98;103094.25;5027892;28;20083;-73
2022/11/12 02:43:26;;;;;;;12.15;6.57;;;;;;;4.41;56.87;103100.16;5015236;28;20047;-74
2022/11/12 02:46:10;;;;;;;13.13;7.50;;;;;;;4.40;57.08;103119.09;5030233;28;20063;-73
2022/11/12 02:48:54;;;;;;;11.32;6.40;;;;;;;4.41;56.85;103105.31;5015789;28;20062;-74
2022/11/12 02:51:38;;;;;;;10.98;6.65;;;;;;;4.21;57.50;103098.00;5028308;28;20044;-74
2022/11/12 02:54:22;;;;;;;11.25;6.78;;;;;;;4.25;57.23;103101.50;5014374;28;20056;-73
2022/11/12 02:57:06;;;;;;;12.75;7.32;;;;;;;4.26;57.23;103113.63;5015470;28;20047;-73
2022/11/12 02:59:50;;;;;;;12.23;6.78;;;;;;;4.25;56.88;103106.69;5013137;28;20469;-73
2022/11/12 03:02:34;;;;;;;13.00;7.05;;;;;;;4.31;57.03;103088.69;5026664;28;20129;-73
2022/11/12 03:05:18;;;;;;;11.30;7.18;;;;;;;4.24;56.81;103089.41;5026936;28;20573;-73
2022/11/12 03:08:04;;;;;;;14.98;7.18;;;;;;;4.16;56.92;103101.31;5027985;28;20076;-72
2022/11/12 03:10:49;;;;;;;12.63;6.75;;;;;;;4.08;57.10;103102.88;5024829;28;20133;-71
2022/11/12 03:13:34;;;;;;;12.63;7.32;;;;;;;4.06;57.03;103109.72;5013875;28;20052;-72
2022/11/12 03:16:18;;;;;;;11.25;7.72;;;;;;;4.02;57.25;103099.28;5026477;28;20036;-72
2022/11/12 03:19:02;;;;;;;14.68;7.32;;;;;;;3.99;57.07;103103.53;5026312;28;20107;-72
2022/11/12 03:21:46;;;;;;;10.18;7.75;;;;;;;4.02;56.97;103103.59;5027258;28;20052;-71
2022/11/12 03:24:29;;;;;;;12.90;6.65;;;;;;;4.01;57.29;103109.59;5014023;28;20126;-69
2022/11/12 03:27:14;;;;;;;14.02;7.35;;;;;;;3.93;57.40;103106.81;5027690;28;20072;-67
2022/11/12 03:29:57;;;;;;;17.42;7.93;;;;;;;3.87;57.16;103098.91;5024126;28;20576;-72
2022/11/12 03:32:41;;;;;;;12.48;7.45;;;;;;;3.80;57.35;103102.19;5024075;28;20067;-73
2022/11/12 03:35:26;;;;;;;9.45;6.35;;;;;;;3.84;56.92;103101.44;5025288;28;20580;-75
2022/11/12 03:38:10;;;;;;;14.65;8.20;;;;;;;3.76;56.51;103102.94;5025737;28;20422;-71
2022/11/12 03:40:54;;;;;;;13.02;8.20;;;;;;;3.73;56.88;103114.09;5026092;28;20063;-72
2022/11/12 03:43:38;;;;;;;11.80;7.50;;;;;;;3.73;56.87;103132.22;5024502;28;20072;-72
2022/11/12 03:46:22;;;;;;;14.38;8.27;;;;;;;3.73;56.87;103116.69;5026315;28;20111;-75
2022/11/12 03:49:06;;;;;;;14.45;7.68;;;;;;;3.69;57.08;103108.81;5028577;28;20109;-71
2022/11/12 03:51:50;;;;;;;13.70;7.80;;;;;;;3.74;56.79;103100.34;5024874;28;20461;-72
2022/11/12 03:54:34;;;;;;;13.60;8.05;;;;;;;3.73;56.96;103113.25;5026965;28;20437;-75
2022/11/12 03:57:18;;;;;;;20.35;8.35;;;;;;;3.70;57.14;103126.97;5025065;28;20123;-76
2022/11/12 04:00:04;;;;;;;15.38;7.70;;;;;;;3.70;57.40;103120.94;5028595;28;20072;-77
2022/11/12 04:02:48;;;;;;;11.10;6.03;;;;;;;3.68;56.89;103110.53;5030236;28;20434;-77
2022/11/12 04:08:36;;;;;;;13.32;7.60;;;;;;;3.66;57.09;103104.44;5022925;28;20102;-74
2022/11/12 04:11:20;;;;;;;12.25;7.50;;;;;;;3.58;57.35;103106.88;5019555;28;20085;-75
2022/11/12 04:14:04;;;;;;;14.48;8.43;;;;;;;3.67;57.39;103116.56;5012060;28;20064;-73
2022/11/12 04:22:53;;;;;;;14.93;8.48;;;;;;;3.73;57.82;103103.75;5027123;28;20071;-74
2022/11/12 04:30:14;;;;;;;16.98;9.63;;;;;;;3.78;57.58;103121.97;5024061;28;20179;-74
2022/11/12 04:31:46;;;;;;;13.23;7.47;;;;;;;3.82;57.64;103122.94;5029253;28;20624;-73
2022/11/12 04:34:30;;;;;;;13.23;7.80;;;;;;;3.74;57.36;103122.75;5029778;28;20047;-73
2022/11/12 04:37:14;;;;;;;13.50;8.40;;;;;;;3.67;57.15;103121.75;5011055;28;20095;-73
2022/11/12 04:44:58;;;;;;;14.68;7.93;;;;;;;3.69;56.96;103116.59;5025068;28;20106;-74
2022/11/12 04:46:08;;;;;;;14.18;7.40;;;;;;;3.50;56.62;103112.69;5025807;28;20060;-70
2022/11/12 04:48:52;;;;;;;11.23;7.18;;;;;;;3.38;56.85;103124.44;5009493;28;20063;-70
2022/11/12 04:54:39;;;;;;;12.80;7.30;;;;;;;3.38;56.67;103120.97;5030006;28;20120;-70
2022/11/12 04:57:24;;;;;;;11.98;6.97;;;;;;;3.36;56.87;103118.38;5043385;28;20052;-69
2022/11/12 05:00:10;;;;;;;12.35;7.57;;;;;;;3.32;56.40;103108.78;5040544;28;20052;-69
2022/11/12 05:02:54;;;;;;;15.20;7.05;;;;;;;3.26;56.82;103123.22;5025287;28;20106;-70
2022/11/12 05:05:38;;;;;;;12.18;6.97;;;;;;;3.31;57.04;103126.81;5010362;28;20605;-70
2022/11/12 05:08:22;;;;;;;12.90;8.15;;;;;;;3.34;57.10;103126.91;5011968;28;20608;-70
2022/11/12 05:11:06;;;;;;;13.32;8.13;;;;;;;3.31;57.47;103116.47;5024257;28;20056;-69
2022/11/12 05:13:50;;;;;;;12.55;7.10;;;;;;;3.28;57.70;103111.22;5024612;28;20044;-70
2022/11/12 05:16:35;;;;;;;13.32;7.93;;;;;;;3.33;57.74;103123.44;5026356;28;20066;-70
2022/11/12 05:19:19;;;;;;;15.02;8.25;;;;;;;3.39;57.80;103136.53;5028157;28;20075;-70
2022/11/12 05:22:06;;;;;;;14.00;8.27;;;;;;;3.42;57.60;103140.91;5030326;28;20238;-75
2022/11/12 05:24:50;;;;;;;14.73;8.07;;;;;;;3.38;57.53;103123.56;5028854;28;20101;-74
2022/11/12 05:27:35;;;;;;;17.65;8.43;;;;;;;3.37;57.29;103116.66;5018792;28;20103;-74
2022/11/12 05:30:19;;;;;;;10.85;7.00;;;;;;;3.38;57.32;103120.97;5031619;28;20043;-74
2022/11/12 05:33:03;;;;;;;12.07;7.43;;;;;;;3.43;57.61;103132.31;5030060;28;20414;-70
2022/11/12 05:35:47;;;;;;;14.05;8.05;;;;;;;3.38;57.45;103144.22;5028121;28;20127;-70
2022/11/12 05:38:31;;;;;;;13.48;7.00;;;;;;;3.38;57.54;103139.06;5020483;28;20588;-70
2022/11/12 05:41:16;;;;;;;13.80;8.20;;;;;;;3.33;57.45;103141.53;5027875;28;20048;-71
2022/11/12 05:44:00;;;;;;;15.32;7.32;;;;;;;3.19;56.80;103148.88;5028275;28;20079;-70
2022/11/12 05:46:44;;;;;;;10.20;6.15;;;;;;;3.11;57.35;103147.81;5028047;28;20124;-71
2022/11/12 05:49:28;;;;;;;12.20;7.43;;;;;;;3.13;57.25;103148.72;5027304;28;20197;-71
2022/11/12 05:52:12;;;;;;;10.88;6.35;;;;;;;3.09;57.13;103146.91;5016751;28;20632;-71
2022/11/12 05:54:56;;;;;;;9.40;5.68;;;;;;;3.13;57.15;103133.22;5029028;28;20056;-73
2022/11/12 05:57:39;;;;;;;7.70;6.68;;;;;;;3.17;56.62;103137.63;5031900;28;20094;-72
2022/11/12 06:00:24;;;;;;;11.93;5.95;;;;;;;3.11;56.67;103141.75;5032623;28;20048;-74
2022/11/12 06:03:09;;;;;;;11.35;6.57;;;;;;;3.00;56.24;103131.13;5015764;28;20043;-74
2022/11/12 06:05:53;;;;;;;13.60;7.25;;;;;;;2.87;56.93;103134.22;5027604;28;20051;-75
2022/11/12 06:08:37;;;;;;;15.00;5.95;;;;;;;2.86;57.35;103138.47;5026196;28;20418;-73
2022/11/12 06:11:21;;;;;;;12.73;6.65;;;;;;;2.92;56.95;103149.00;5030089;28;20502;-73
2022/11/12 06:14:05;;;;;;;13.15;7.18;;;;;;;2.91;56.75;103136.03;5016297;28;20402;-74
2022/11/12 06:16:49;;;;;;;10.85;6.53;;;;;;;2.83;56.79;103137.53;5029530;28;20044;-74
2022/11/12 06:19:33;;;;;;;12.07;6.78;;;;;;;2.74;56.89;103128.69;5025832;28;20084;-73
2022/11/12 06:22:17;;;;;;;13.68;6.53;;;;;;;2.70;57.45;103144.91;5027900;28;20103;-73
2022/11/12 06:25:02;;;;;;;11.10;6.97;;;;;;;2.85;57.39;103157.41;5027626;28;20048;-71
2022/11/12 06:27:46;;;;;;;11.70;6.22;;;;;;;2.82;57.02;103151.28;5011863;28;20501;-73
2022/11/12 06:30:30;;;;;;;14.05;7.32;;;;;;;2.67;57.51;103146.56;5029590;28;20071;-73
2022/11/12 06:33:14;;;;;;;10.60;6.10;;;;;;;2.75;56.92;103151.09;5029897;28;20082;-73
2022/11/12 06:36:01;;;;;;;11.48;6.07;;;;;;;2.71;56.61;103145.78;5013225;28;20048;-70
2022/11/12 06:38:46;;;;;;;9.80;5.93;;;;;;;2.68;56.44;103156.03;5024640;28;20838;-69
2022/11/12 06:41:30;;;;;;;9.85;5.75;;;;;;;2.57;56.74;103160.88;5026441;28;20056;-71
2022/11/12 06:44:14;;;;;;;10.35;5.93;;;;;;;2.60;56.91;103168.72;5026399;28;20043;-71
2022/11/12 06:46:58;;;;;;;7.28;5.82;;;;;;;2.54;56.60;103171.13;5020085;28;20139;-68
2022/11/12 06:49:42;;;;;;;8.40;5.10;;;;;;;2.52;56.74;103159.88;5022438;28;20138;-68
2022/11/12 06:52:26;;;;;;;9.43;6.43;;;;;;;2.57;57.04;103160.88;5028113;28;20102;-71
2022/11/12 06:55:10;;;;;;;14.73;6.50;;;;;;;2.64;56.90;103159.34;5026086;28;20075;-69
2022/11/12 06:57:54;;;;;;;8.93;5.72;;;;;;;2.59;56.82;103169.53;5023450;28;20090;-69
2022/11/12 07:00:38;;;;;;;11.68;5.60;;;;;;;2.58;57.01;103178.13;5024450;28;20055;-70
2022/11/12 07:03:22;;;;;;;8.13;5.07;;;;;;;2.61;57.47;103183.38;5024382;28;20533;-69
2022/11/12 07:06:13;;;;;;;10.32;4.38;;;;;;;2.71;57.07;103169.94;5026321;28;20410;-69
2022/11/12 07:08:57;;;;;;;10.13;6.15;;;;;;;2.71;57.60;103159.59;5026971;28;20129;-69
2022/11/12 07:11:42;;;;;;;7.82;4.85;;;;;;;2.81;57.31;103165.91;5039417;28;20045;-70
2022/11/12 07:14:26;;;;;;;8.25;4.85;;;;;;;2.75;56.96;103169.16;5040039;28;20128;-70
2022/11/12 07:17:10;;;;;;;10.18;5.65;;;;;;;2.67;57.20;103170.66;5029838;28;20037;-70
2022/11/12 07:19:54;;;;;;;8.90;5.57;;;;;;;2.74;56.96;103174.31;5024674;28;20417;-70
2022/11/12 07:22:38;;;;;;;8.07;5.60;;;;;;;2.70;57.06;103168.16;5025396;28;20132;-69
2022/11/12 07:25:22;;;;;;;7.28;4.78;;;;;;;2.82;57.54;103166.75;5024307;28;20064;-70
2022/11/12 07:28:06;;;;;;;7.88;5.20;;;;;;;2.81;57.30;103165.91;5027055;28;20043;-72
2022/11/12 07:30:55;;;;;;;12.20;4.85;;;;;;;2.85;57.03;103170.31;5013485;28;20053;-70
2022/11/12 07:33:39;;;;;;;9.80;5.90;;;;;;;2.85;57.40;103161.72;5023982;28;20044;-71
2022/11/12 07:36:23;;;;;;;9.40;5.15;;;;;;;2.89;57.66;103154.09;5028597;28;20036;-70
2022/11/12 07:39:07;;;;;;;7.22;4.55;;;;;;;3.02;57.66;103151.84;5013907;28;20051;-72
2022/11/12 07:41:51;;;;;;;9.15;5.30;;;;;;;3.24;58.38;103155.91;5023911;28;20072;-71
2022/11/12 07:44:35;;;;;;;13.23;5.85;;;;;;;3.69;58.72;103166.59;5007403;28;20044;-72
2022/11/12 07:47:19;;;;;;;11.35;5.47;;;;;;;4.27;58.53;103174.91;5017458;28;20107;-70
2022/11/12 07:50:04;;;;;;;10.30;5.60;;;;;;;4.66;57.06;103174.06;5026302;28;20039;-70
2022/11/12 07:52:49;;;;;;;11.52;6.00;;;;;;;5.33;57.00;103171.13;5026722;28;20099;-70
2022/11/12 07:55:32;;;;;;;8.77;6.18;;;;;;;6.45;54.91;103170.38;5025069;28;20049;-70
2022/11/12 07:58:17;;;;;;;9.68;4.88;;;;;;;7.44;51.95;103173.28;5019344;28;20084;-70
2022/11/12 08:01:19;;;;;;;9.57;4.35;;;;;;;8.46;48.65;103172.38;5024980;28;20161;-72
2022/11/12 08:04:05;;;;;;;9.50;5.35;;;;;;;9.55;47.08;103172.78;5023589;28;20051;-70
2022/11/12 08:06:49;;;;;;;8.60;4.65;;;;;;;10.70;46.32;103176.97;5010902;28;20102;-71
2022/11/12 08:09:33;;;;;;;8.43;4.72;;;;;;;11.68;44.66;103179.03;5023156;28;20052;-71
2022/11/12 08:12:17;;;;;;;5.78;4.00;;;;;;;12.28;43.96;103178.53;5018651;28;20052;-71
2022/11/12 08:15:02;;;;;;;8.73;4.35;;;;;;;12.90;40.83;103175.22;5022492;28;20094;-71
2022/11/12 08:17:45;;;;;;;4.03;2.75;;;;;;;12.84;40.61;103177.91;5026325;28;20044;-71
2022/11/12 08:20:29;;;;;;;9.40;4.40;;;;;;;12.70;36.47;103167.59;5025816;28;20083;-71
2022/11/12 08:23:13;;;;;;;7.57;3.83;;;;;;;12.63;36.05;103166.78;5024217;28;20064;-70
2022/11/12 08:26:02;;;;;;;7.45;3.45;;;;;;;12.39;39.00;103178.41;5022708;28;20106;-71
2022/11/12 08:28:46;;;;;;;5.90;3.58;;;;;;;12.88;37.08;103187.50;5021802;28;20049;-71
2022/11/12 08:31:30;;;;;;;9.50;4.35;;;;;;;13.26;37.37;103193.97;5023174;28;20059;-70
2022/11/12 08:34:17;;;;;;;6.72;3.83;;;;;;;12.98;36.96;103193.47;5022942;28;20117;-69
2022/11/12 08:37:01;;;;;;;7.05;3.42;;;;;;;12.52;35.95;103184.41;5025694;28;20076;-72
2022/11/12 08:39:45;;;;;;;8.88;3.78;;;;;;;12.41;37.24;103173.16;5025299;28;20044;-70
2022/11/12 08:42:29;;;;;;;9.68;4.57;;;;;;;12.43;37.30;103168.78;5025017;28;20060;-71
2022/11/12 08:45:13;;;;;;;6.95;3.55;;;;;;;12.52;36.28;103173.91;5021341;28;20261;-70
2022/11/12 08:48:02;;;;;;;7.88;4.22;;;;;;;11.78;38.87;103193.00;5023807;28;20528;-71
2022/11/12 08:50:46;;;;;;;8.55;5.00;;;;;;;11.40;38.38;103201.97;5022209;28;20095;-70
2022/11/12 08:53:31;;;;;;;10.88;5.15;;;;;;;10.75;40.00;103195.25;5024654;28;20170;-71
2022/11/12 08:56:15;;;;;;;7.45;4.70;;;;;;;10.46;40.83;103184.91;5028285;28;20087;-70
2022/11/12 08:58:59;;;;;;;10.23;5.03;;;;;;;9.94;43.07;103186.72;5028441;28;20168;-71
2022/11/12 09:01:43;;;;;;;5.82;4.65;;;;;;;10.14;42.41;103202.38;5022091;28;20083;-70
2022/11/12 09:04:27;;;;;;;5.15;4.10;;;;;;;10.13;41.84;103211.13;5020991;28;20132;-71
2022/11/12 09:07:11;;;;;;;6.88;4.90;;;;;;;10.52;41.84;103221.50;5020885;28;20148;-70
2022/11/12 09:09:55;;;;;;;6.70;4.50;;;;;;;10.73;41.34;103215.34;5019609;28;20048;-71
2022/11/12 09:12:39;;;;;;;7.55;4.35;;;;;;;10.85;41.38;103204.88;5019461;28;20625;-69
2022/11/12 09:15:24;;;;;;;5.93;4.25;;;;;;;10.74;40.87;103201.38;5019757;28;20813;-71
2022/11/12 09:18:16;;;;;;;10.07;4.75;;;;;;;10.97;42.13;103203.94;5014200;28;20087;-71
2022/11/12 09:21:06;;;;;;;7.45;5.07;;;;;;;10.21;42.85;103206.75;5018811;28;20130;-70
2022/11/12 09:23:50;;;;;;;17.38;9.25;;;;;;;10.85;41.85;103225.78;5019946;28;20048;-72
2022/11/12 09:26:34;;;;;;;7.63;4.97;;;;;;;11.32;41.35;103229.06;5018409;28;20123;-70
2022/11/12 09:29:18;;;;;;;8.82;4.80;;;;;;;11.66;41.06;103216.63;5018963;28;20064;-72
2022/11/12 09:32:03;;;;;;;12.18;5.90;;;;;;;11.91;38.71;103205.97;5020450;28;20129;-71
2022/11/12 09:34:46;;;;;;;8.00;5.60;;;;;;;11.05;42.17;103203.03;5019252;28;20052;-71
2022/11/12 09:37:31;;;;;;;12.68;6.95;;;;;;;10.67;42.64;103215.38;5020725;28;20095;-72
2022/11/12 09:40:18;;;;;;;10.65;5.85;;;;;;;11.67;42.31;103229.72;5021224;28;20052;-72
2022/11/12 09:43:29;;;;;;;9.68;6.13;;;;;;;11.86;41.36;103230.47;5014709;28;20047;-71
2022/11/12 09:46:24;;;;;;;9.88;6.38;;;;;;;11.14;42.03;103219.56;5006643;28;20044;-72
2022/11/12 09:49:17;;;;;;;8.90;6.45;;;;;;;11.50;41.32;103221.09;5018418;28;20264;-70
2022/11/12 09:52:05;;;;;;;9.85;7.43;;;;;;;11.88;40.63;103231.31;5020542;28;20040;-70
2022/11/12 09:54:59;;;;;;;17.52;7.38;;;;;;;12.03;41.57;103237.34;5018555;28;20053;-71
2022/11/12 09:57:43;;;;;;;11.95;7.25;;;;;;;11.97;40.75;103242.63;5016620;28;20088;-68
2022/11/12 10:00:28;;;;;;;9.30;6.95;;;;;;;12.21;40.87;103247.66;5018150;28;20641;-69
2022/11/12 10:04:00;;;;;;;8.98;6.75;;;;;;;12.20;40.92;103245.94;5020607;28;20096;-69
2022/11/12 10:06:56;;;;;;;11.90;7.40;;;;;;;12.62;41.44;103248.13;5020386;28;20190;-69
2022/11/12 10:09:58;;;;;;;14.73;8.27;;;;;;;12.79;39.47;103240.09;5018564;28;20897;-70
2022/11/12 10:13:06;;;;;;;13.77;7.97;;;;;;;12.11;40.99;103235.53;5017625;28;20070;-70
2022/11/12 10:19:21;;;;;;;17.40;7.83;;;;;;;12.67;40.48;103241.09;5018386;28;20127;-68
2022/11/12 10:22:36;;;;;;;12.60;7.47;;;;;;;12.82;41.21;103235.66;5021656;28;20071;-71
2022/11/12 10:25:20;;;;;;;11.07;7.57;;;;;;;12.29;40.95;103219.63;5016460;28;20818;-71
2022/11/12 10:28:15;;;;;;;16.02;8.82;;;;;;;12.41;42.24;103216.00;5017887;28;20075;-70
2022/11/12 10:31:05;;;;;;;16.52;9.43;;;;;;;12.43;42.28;103218.59;5016924;28;20059;-69
2022/11/12 10:33:48;;;;;;;14.02;9.07;;;;;;;13.15;40.53;103232.66;5019169;28;20469;-70
2022/11/12 10:36:35;;;;;;;12.80;8.20;;;;;;;12.85;41.78;103232.16;5019039;28;20056;-71
2022/11/12 10:39:35;;;;;;;14.60;9.13;;;;;;;13.10;41.45;103236.19;5018089;28;20051;-74
2022/11/12 10:42:21;;;;;;;18.95;10.48;;;;;;;13.37;40.07;103226.19;5018964;28;20084;-71
2022/11/12 10:45:20;;;;;;;17.63;9.57;;;;;;;13.37;40.47;103217.47;5017873;28;20574;-70
2022/11/12 10:48:04;;;;;;;16.42;9.13;;;;;;;13.67;39.10;103226.66;5019087;28;20056;-71
2022/11/12 10:50:49;;;;;;;16.45;10.48;;;;;;;13.36;39.93;103229.72;5015491;28;20126;-70
2022/11/12 10:53:38;;;;;;;13.77;10.35;;;;;;;13.19;41.85;103218.59;5020390;28;20064;-68
2022/11/12 10:56:30;;;;;;;12.55;9.77;;;;;;;13.70;40.67;103205.59;5019993;28;20126;-71
2022/11/12 10:59:17;;;;;;;;;;;;;;;13.98;40.43;103190.22;5016604;28;20102;-68
2022/11/12 11:02:01;;;;;;;17.42;9.73;;;;;;;13.66;40.72;103191.63;5017449;28;19924;-70
2022/11/12 11:04:45;;;;;;;12.20;8.63;;;;;;;14.10;39.75;103205.78;5002456;28;20846;-68
2022/11/12 11:07:29;;;;;;;16.50;8.73;;;;;;;14.34;38.52;103207.09;5016962;28;20102;-69
2022/11/12 11:10:23;;;;;;;15.63;9.38;;;;;;;14.20;38.52;103195.94;5017585;28;20780;-68
2022/11/12 11:13:24;;;;;;;15.02;8.75;;;;;;;13.33;41.47;103195.63;5014785;28;20679;-67
2022/11/12 11:16:31;;;;;;;14.57;9.20;;;;;;;13.63;40.67;103188.16;5017409;28;20094;-66
2022/11/12 11:19:18;;;;;;;15.05;9.18;;;;;;;13.51;40.96;103190.06;5015365;28;20044;-67
2022/11/12 11:22:36;;;;;;;13.27;9.45;;;;;;;14.13;38.56;103186.44;5016287;28;20052;-67
2022/11/12 11:25:28;;;;;;;12.38;9.05;;;;;;;14.20;39.13;103185.44;5002524;28;20072;-69
2022/11/12 11:28:41;;;;;;;10.30;8.52;;;;;;;14.19;39.89;103167.94;5016415;28;20119;-65
2022/11/12 11:31:48;;;;;;;16.77;8.95;;;;;;;13.47;39.82;103167.41;5005505;28;20059;-69
2022/11/12 11:34:58;;;;;;;12.15;8.85;;;;;;;12.94;42.02;103179.53;5015887;28;20044;-67
2022/11/12 11:38:15;;;;;;;14.23;8.55;;;;;;;12.93;41.35;103177.78;5016462;28;20139;-68
2022/11/12 11:41:11;;;;;;;15.25;9.05;;;;;;;12.72;42.46;103170.22;5013457;28;20048;-69
2022/11/12 11:44:02;;;;;;;13.90;9.05;;;;;;;12.69;42.06;103166.75;5017993;28;20835;-70
2022/11/12 11:47:02;;;;;;;19.83;9.95;;;;;;;12.65;42.60;103165.00;5021950;28;20140;-69
2022/11/12 11:50:06;;;;;;;12.73;8.00;;;;;;;12.24;43.84;103166.31;5017627;28;20047;-72
2022/11/12 11:52:58;;;;;;;15.23;9.40;;;;;;;12.23;43.44;103174.22;5016023;28;20111;-72
2022/11/12 11:56:09;;;;;;;16.33;9.55;;;;;;;12.22;43.55;103169.84;5016729;28;20103;-71
2022/11/12 11:59:23;;;;;;;16.95;8.40;;;;;;;12.40;43.45;103164.44;5014861;28;20417;-71
2022/11/12 12:02:10;;;;;;;15.15;8.25;;;;;;;12.43;43.77;103153.03;5017868;28;20110;-70
2022/11/12 12:05:28;;;;;;;12.95;7.35;;;;;;;12.43;43.56;103156.53;5016410;28;20048;-70
2022/11/12 12:08:24;;;;;;;15.25;8.23;;;;;;;12.40;43.39;103155.69;5001848;28;20115;-70
2022/11/12 12:11:14;;;;;;;11.55;8.73;;;;;;;12.32;43.48;103163.66;5000858;28;20139;-72
2022/11/12 12:14:29;;;;;;;11.43;7.88;;;;;;;12.32;43.26;103160.16;5018118;28;20071;-70
2022/11/12 12:17:39;;;;;;;13.82;7.63;;;;;;;12.58;43.18;103150.22;5016539;28;20071;-71
2022/11/12 12:20:34;;;;;;;14.05;7.78;;;;;;;12.89;42.52;103152.47;5017176;28;20060;-70
2022/11/12 12:23:32;;;;;;;13.48;8.15;;;;;;;12.80;43.48;103152.59;5017786;28;20767;-70
2022/11/12 12:26:24;;;;;;;13.35;8.25;;;;;;;12.98;43.06;103154.09;5014792;28;20064;-71
2022/11/12 12:29:16;;;;;;;10.63;6.88;;;;;;;13.04;42.83;103151.41;5013720;28;20099;-70
2022/11/12 12:32:09;;;;;;;11.43;7.82;;;;;;;12.88;42.00;103140.25;5018389;28;20048;-70
2022/11/12 12:35:38;;;;;;;12.82;8.27;;;;;;;12.78;42.87;103141.25;5013811;28;20476;-70
2022/11/12 12:38:37;;;;;;;13.70;8.32;;;;;;;12.72;43.55;103143.97;5003349;28;20048;-72
2022/11/12 12:41:29;;;;;;;11.60;7.93;;;;;;;12.49;43.18;103152.94;5017533;28;20109;-72
2022/11/12 12:44:13;;;;;;;8.52;7.32;;;;;;;12.59;43.29;103151.09;5016013;28;20975;-72
2022/11/12 12:46:59;;;;;;;15.07;7.50;;;;;;;12.75;42.95;103139.53;5017803;28;20122;-72
2022/11/12 12:49:46;;;;;;;11.27;7.40;;;;;;;12.93;43.06;103127.91;5012787;28;20049;-72
2022/11/12 12:53:00;;;;;;;9.55;7.15;;;;;;;12.84;43.40;103130.69;5016502;28;20835;-73
2022/11/12 12:55:50;;;;;;;12.82;7.75;;;;;;;12.82;42.53;103145.56;5000983;28;20576;-72
2022/11/12 12:58:43;;;;;;;10.10;7.15;;;;;;;12.76;42.45;103145.66;5017167;28;20051;-73
2022/11/12 13:01:31;;;;;;;14.45;9.07;;;;;;;12.80;42.48;103142.09;5016246;28;20071;-72
2022/11/12 13:04:15;;;;;;;14.43;7.07;;;;;;;12.75;42.69;103134.28;5015554;28;20128;-72
2022/11/12 13:06:59;;;;;;;12.82;7.47;;;;;;;12.88;42.92;103135.00;5016216;28;20047;-71
2022/11/12 13:09:43;;;;;;;12.85;7.45;;;;;;;12.88;42.32;103138.50;5016791;28;20056;-71
2022/11/12 13:13:05;;;;;;;11.75;7.53;;;;;;;12.89;42.32;103141.97;5016223;28;20056;-72
2022/11/12 13:15:52;;;;;;;10.98;7.18;;;;;;;12.87;41.85;103143.75;5015172;28;20304;-72
2022/11/12 13:18:37;;;;;;;11.98;7.00;;;;;;;13.06;42.35;103133.88;4995137;28;20070;-71
2022/11/12 13:21:21;;;;;;;13.65;7.13;;;;;;;13.28;40.74;103129.16;5014610;28;20079;-73
2022/11/12 13:24:11;;;;;;;10.52;6.85;;;;;;;13.25;41.79;103130.09;5017061;28;20439;-71